Time;durP1;ratioP1;P1;durP2;ratioP2;P2;SDS_P1;SDS_P2;PMS_P1;PMS_P2;Temp;Humidity;BMP_temperature;BMP_pressure;BME280_temperature;BME280_humidity;BME280_pressure;Samples;Min_cycle;Max_cycle;Signal;HPM_P1;HPM_P2
2021/11/28 00:02:20;;;;;;;;;4.00;4.00;;;;;;;;5089804;27;49839;-74
2021/11/28 00:04:46;;;;;;;;;3.00;3.00;;;;;;;;5088917;27;49947;-76
2021/11/28 00:15:10;;;;;;;;;5.00;5.00;;;;;;;;5089303;27;49970;-63
2021/11/28 00:17:36;;;;;;;;;3.00;3.00;;;;;;;;5089356;27;49122;-63
2021/11/28 00:20:02;;;;;;;;;2.75;1.00;;;;;;;;5087620;27;49733;-63
2021/11/28 00:22:28;;;;;;;;;5.50;4.00;;;;;;;;5088134;27;49660;-63
2021/11/28 00:24:53;;;;;;;;;3.50;2.75;;;;;;;;5088536;27;49739;-65
2021/11/28 00:27:18;;;;;;;;;2.00;2.00;;;;;;;;5088566;27;49519;-64
2021/11/28 00:29:43;;;;;;;;;5.00;2.00;;;;;;;;5088311;27;49728;-70
2021/11/28 00:32:09;;;;;;;;;2.25;2.25;;;;;;;;5089358;27;49284;-72
2021/11/28 00:34:34;;;;;;;;;3.00;3.00;;;;;;;;5086942;28;50713;-78
2021/11/28 00:36:59;;;;;;;;;3.50;2.50;;;;;;;;5088075;27;49950;-77
2021/11/28 00:39:25;;;;;;;;;1.75;1.75;;;;;;;;5088188;27;49361;-65
2021/11/28 00:41:50;;;;;;;;;1.50;1.00;;;;;;;;5088955;27;49410;-77
2021/11/28 00:44:15;;;;;;;;;3.50;3.50;;;;;;;;5089899;27;49527;-73
2021/11/28 00:46:40;;;;;;;;;1.75;1.75;;;;;;;;5089091;27;49461;-77
2021/11/28 00:49:13;;;;;;;;;2.25;2.00;;;;;;;;5089014;27;49987;-78
2021/11/28 00:51:50;;;;;;;;;3.00;1.25;;;;;;;;5089901;27;49293;-78
2021/11/28 00:54:16;;;;;;;;;2.75;2.75;;;;;;;;5087286;27;50127;-76
2021/11/28 00:56:41;;;;;;;;;2.50;2.00;;;;;;;;5087097;28;49210;-76
2021/11/28 00:59:06;;;;;;;;;2.00;1.50;;;;;;;;5087875;27;49520;-77
2021/11/28 01:01:33;;;;;;;;;2.75;1.75;;;;;;;;5087917;27;49265;-74
2021/11/28 01:03:59;;;;;;;;;3.00;3.00;;;;;;;;5086891;27;50091;-75
2021/11/28 01:06:24;;;;;;;;;8.25;3.00;;;;;;;;5086789;28;49334;-77
2021/11/28 01:08:49;;;;;;;;;4.00;1.75;;;;;;;;5088102;27;49313;-77
2021/11/28 01:11:14;;;;;;;;;3.25;2.75;;;;;;;;5088896;27;49516;-64
2021/11/28 01:13:40;;;;;;;;;2.50;2.50;;;;;;;;5086745;28;50295;-64
2021/11/28 01:16:05;;;;;;;;;5.50;3.50;;;;;;;;5088040;27;49336;-64
2021/11/28 01:18:33;;;;;;;;;5.00;2.00;;;;;;;;5089148;27;49175;-64
2021/11/28 01:20:58;;;;;;;;;3.50;2.25;;;;;;;;5088174;27;49432;-64
2021/11/28 01:23:23;;;;;;;;;3.50;2.50;;;;;;;;5088164;27;49494;-64
2021/11/28 01:25:48;;;;;;;;;3.75;2.25;;;;;;;;5088601;27;49446;-64
2021/11/28 01:28:14;;;;;;;;;1.50;1.50;;;;;;;;5087404;27;49825;-64
2021/11/28 01:30:39;;;;;;;;;1.25;1.25;;;;;;;;5089348;28;49466;-64
2021/11/28 01:33:04;;;;;;;;;2.50;1.25;;;;;;;;5088040;27;49386;-64
2021/11/28 01:35:29;;;;;;;;;2.00;2.00;;;;;;;;5086604;27;49621;-64
2021/11/28 01:37:55;;;;;;;;;3.00;1.50;;;;;;;;5087415;28;49307;-68
2021/11/28 01:40:21;;;;;;;;;3.00;3.00;;;;;;;;5088125;28;49382;-65
2021/11/28 01:42:49;;;;;;;;;2.50;1.00;;;;;;;;5088418;27;49424;-67
2021/11/28 01:45:16;;;;;;;;;1.00;1.00;;;;;;;;5087075;27;49547;-64
2021/11/28 01:47:42;;;;;;;;;2.00;0.75;;;;;;;;5085626;28;49576;-67
2021/11/28 01:50:07;;;;;;;;;2.00;2.00;;;;;;;;5086939;28;49407;-65
2021/11/28 01:52:35;;;;;;;;;1.75;1.75;;;;;;;;5087172;28;49699;-64
2021/11/28 01:55:00;;;;;;;;;2.25;0.75;;;;;;;;5087498;27;49493;-64
2021/11/28 01:57:26;;;;;;;;;1.75;1.75;;;;;;;;5086571;27;49547;-64
2021/11/28 01:59:51;;;;;;;;;2.75;2.75;;;;;;;;5087575;27;49740;-63
2021/11/28 02:02:16;;;;;;;;;2.00;2.00;;;;;;;;5086479;27;49836;-63
2021/11/28 02:04:42;;;;;;;;;1.00;1.00;;;;;;;;5085373;28;49496;-63
2021/11/28 02:07:08;;;;;;;;;1.75;1.75;;;;;;;;5087610;28;49305;-63
2021/11/28 02:09:36;;;;;;;;;1.00;1.00;;;;;;;;5087046;28;49354;-63
2021/11/28 02:12:01;;;;;;;;;4.50;2.00;;;;;;;;5086772;27;49986;-65
2021/11/28 02:14:26;;;;;;;;;2.00;2.00;;;;;;;;5087524;28;49656;-64
2021/11/28 02:16:51;;;;;;;;;1.00;1.00;;;;;;;;5087938;27;49317;-64
2021/11/28 02:19:17;;;;;;;;;3.00;1.25;;;;;;;;5087652;28;49510;-67
2021/11/28 02:21:42;;;;;;;;;1.00;1.00;;;;;;;;5087178;27;49925;-65
2021/11/28 02:24:07;;;;;;;;;2.50;1.50;;;;;;;;5087750;27;49716;-64
2021/11/28 02:26:32;;;;;;;;;1.25;1.00;;;;;;;;5085655;27;49332;-64
2021/11/28 02:28:58;;;;;;;;;3.00;2.00;;;;;;;;5087313;27;49405;-66
2021/11/28 02:31:23;;;;;;;;;1.25;1.00;;;;;;;;5082176;27;50018;-68
2021/11/28 02:33:48;;;;;;;;;2.25;1.75;;;;;;;;5085967;28;49774;-65
2021/11/28 02:36:14;;;;;;;;;2.00;2.00;;;;;;;;5087450;27;49609;-72
2021/11/28 02:38:39;;;;;;;;;0.25;0.25;;;;;;;;5088335;27;49390;-73
2021/11/28 02:41:04;;;;;;;;;1.25;0.75;;;;;;;;5089958;28;50320;-74
2021/11/28 02:43:33;;;;;;;;;1.00;1.00;;;;;;;;5091163;27;49271;-74
2021/11/28 02:46:03;;;;;;;;;0.25;0.00;;;;;;;;5090378;27;49401;-75
2021/11/28 02:48:28;;;;;;;;;2.00;1.00;;;;;;;;5090778;27;49852;-72
2021/11/28 02:50:53;;;;;;;;;2.25;1.75;;;;;;;;5090399;27;50314;-76
2021/11/28 02:53:19;;;;;;;;;0.25;0.25;;;;;;;;5089922;28;49306;-75
2021/11/28 02:55:46;;;;;;;;;1.75;1.75;;;;;;;;5089445;27;49570;-74
2021/11/28 02:58:12;;;;;;;;;0.25;0.00;;;;;;;;5089782;28;49563;-74
2021/11/28 03:00:40;;;;;;;;;1.50;0.75;;;;;;;;5089335;27;50658;-76
2021/11/28 03:03:06;;;;;;;;;8.50;6.50;;;;;;;;5090670;27;49791;-76
2021/11/28 03:05:31;;;;;;;;;30.00;24.25;;;;;;;;5090404;27;49429;-74
2021/11/28 03:07:57;;;;;;;;;39.50;32.00;;;;;;;;5090336;27;49342;-78
2021/11/28 03:10:28;;;;;;;;;19.00;18.00;;;;;;;;5088441;27;49729;-64
2021/11/28 03:12:53;;;;;;;;;31.75;25.25;;;;;;;;5089042;27;49401;-64
2021/11/28 03:15:18;;;;;;;;;41.75;31.75;;;;;;;;5089549;27;49276;-64
2021/11/28 03:17:43;;;;;;;;;18.00;15.75;;;;;;;;5089075;27;49424;-64
2021/11/28 03:20:09;;;;;;;;;8.50;5.50;;;;;;;;5089283;27;49768;-63
2021/11/28 03:22:34;;;;;;;;;2.50;2.00;;;;;;;;5088650;27;49545;-63
2021/11/28 03:25:07;;;;;;;;;2.50;1.50;;;;;;;;5090016;27;49178;-64
2021/11/28 03:27:32;;;;;;;;;1.00;1.00;;;;;;;;5089661;27;49362;-65
2021/11/28 03:29:57;;;;;;;;;3.00;1.00;;;;;;;;5090358;27;49367;-64
2021/11/28 03:32:22;;;;;;;;;2.50;0.75;;;;;;;;5089609;28;49530;-64
2021/11/28 03:34:48;;;;;;;;;0.75;0.75;;;;;;;;5089071;28;49566;-64
2021/11/28 03:37:13;;;;;;;;;1.25;1.25;;;;;;;;5088248;28;50118;-64
2021/11/28 03:39:38;;;;;;;;;0.75;0.50;;;;;;;;5089160;27;49669;-65
2021/11/28 03:42:05;;;;;;;;;1.25;1.00;;;;;;;;5089355;27;49434;-67
2021/11/28 03:44:30;;;;;;;;;1.00;0.00;;;;;;;;5090096;27;49172;-65
2021/11/28 03:46:55;;;;;;;;;1.00;0.50;;;;;;;;5090708;28;49493;-64
2021/11/28 03:49:21;;;;;;;;;1.00;1.00;;;;;;;;5088702;27;49252;-64
2021/11/28 03:51:46;;;;;;;;;0.00;0.00;;;;;;;;5088863;27;49276;-65
2021/11/28 03:54:11;;;;;;;;;1.00;1.00;;;;;;;;5089213;27;49470;-65
2021/11/28 03:56:37;;;;;;;;;1.00;0.00;;;;;;;;5090210;27;49322;-67
2021/11/28 03:59:03;;;;;;;;;0.00;0.00;;;;;;;;5088127;27;49573;-64
2021/11/28 04:01:28;;;;;;;;;1.00;1.00;;;;;;;;5088987;28;49491;-64
2021/11/28 04:03:53;;;;;;;;;1.00;1.00;;;;;;;;5088232;27;49316;-65
2021/11/28 04:06:21;;;;;;;;;0.25;0.25;;;;;;;;5089443;27;49480;-63
2021/11/28 04:08:47;;;;;;;;;0.75;0.75;;;;;;;;5088967;27;49828;-66
2021/11/28 04:11:12;;;;;;;;;1.00;1.00;;;;;;;;5089320;27;49531;-64
2021/11/28 04:13:37;;;;;;;;;0.00;0.00;;;;;;;;5088496;27;49626;-64
2021/11/28 04:16:02;;;;;;;;;0.25;0.25;;;;;;;;5090214;28;49663;-66
2021/11/28 04:18:27;;;;;;;;;1.00;1.00;;;;;;;;5089809;28;49898;-67
2021/11/28 04:20:53;;;;;;;;;1.50;0.50;;;;;;;;5089340;27;49456;-67
2021/11/28 04:23:18;;;;;;;;;0.00;0.00;;;;;;;;5089464;27;49345;-64
2021/11/28 04:25:43;;;;;;;;;0.25;0.25;;;;;;;;5088479;27;49779;-64
2021/11/28 04:28:09;;;;;;;;;0.25;0.00;;;;;;;;5088707;27;50381;-67
2021/11/28 04:30:34;;;;;;;;;0.00;0.00;;;;;;;;5089772;27;49301;-64
2021/11/28 04:33:00;;;;;;;;;0.00;0.00;;;;;;;;5088771;27;49298;-65
2021/11/28 04:35:25;;;;;;;;;0.25;0.00;;;;;;;;5087941;27;49478;-69
2021/11/28 04:37:50;;;;;;;;;1.25;0.00;;;;;;;;5088177;27;49531;-65
2021/11/28 04:40:16;;;;;;;;;0.50;0.50;;;;;;;;5089464;27;49304;-66
2021/11/28 04:42:41;;;;;;;;;1.00;1.00;;;;;;;;5089668;27;49461;-63
2021/11/28 04:45:07;;;;;;;;;0.50;0.00;;;;;;;;5090252;28;49372;-64
2021/11/28 04:47:32;;;;;;;;;1.75;1.75;;;;;;;;5088011;27;49359;-67
2021/11/28 04:49:57;;;;;;;;;2.00;0.00;;;;;;;;5088909;27;49565;-64
2021/11/28 04:52:23;;;;;;;;;0.00;0.00;;;;;;;;5087723;27;49845;-64
2021/11/28 04:54:48;;;;;;;;;0.00;0.00;;;;;;;;5088074;28;49210;-66
2021/11/28 04:57:13;;;;;;;;;2.00;0.00;;;;;;;;5086862;27;49800;-63
2021/11/28 04:59:38;;;;;;;;;0.50;0.50;;;;;;;;5088900;27;49302;-63
2021/11/28 05:02:04;;;;;;;;;1.00;1.00;;;;;;;;5087867;28;49855;-63
2021/11/28 05:04:29;;;;;;;;;1.00;0.25;;;;;;;;5087337;28;49915;-63
2021/11/28 05:06:54;;;;;;;;;0.00;0.00;;;;;;;;5085409;28;50513;-63
2021/11/28 05:09:19;;;;;;;;;0.00;0.00;;;;;;;;5088606;27;49224;-63
2021/11/28 05:11:44;;;;;;;;;1.75;1.75;;;;;;;;5088475;27;49330;-64
2021/11/28 05:14:10;;;;;;;;;0.75;0.00;;;;;;;;5089099;27;49498;-67
2021/11/28 05:16:38;;;;;;;;;0.25;0.25;;;;;;;;5087627;27;50006;-64
2021/11/28 05:19:03;;;;;;;;;3.00;2.25;;;;;;;;5088340;27;49400;-63
2021/11/28 05:21:28;;;;;;;;;0.50;0.50;;;;;;;;5088775;27;49673;-64
2021/11/28 05:23:53;;;;;;;;;1.75;1.00;;;;;;;;5087322;27;49217;-65
2021/11/28 05:26:19;;;;;;;;;1.00;1.00;;;;;;;;5088415;27;49923;-64
2021/11/28 05:28:44;;;;;;;;;1.00;1.00;;;;;;;;5087409;28;49545;-64
2021/11/28 05:31:12;;;;;;;;;3.00;1.00;;;;;;;;5086983;27;49164;-63
2021/11/28 05:33:37;;;;;;;;;1.00;1.00;;;;;;;;5088183;27;49611;-63
2021/11/28 05:36:03;;;;;;;;;1.25;0.25;;;;;;;;5089076;28;49950;-63
2021/11/28 05:38:28;;;;;;;;;0.50;0.50;;;;;;;;5087779;28;49768;-63
2021/11/28 05:40:53;;;;;;;;;1.00;1.00;;;;;;;;5087901;27;49362;-63
2021/11/28 05:43:18;;;;;;;;;2.00;0.00;;;;;;;;5087323;27;49426;-76
2021/11/28 05:45:44;;;;;;;;;1.00;0.75;;;;;;;;5086018;28;51850;-72
2021/11/28 05:48:09;;;;;;;;;2.00;2.00;;;;;;;;5089223;27;49414;-75
2021/11/28 05:50:34;;;;;;;;;1.00;1.00;;;;;;;;5087516;27;49248;-72
2021/11/28 05:52:59;;;;;;;;;0.00;0.00;;;;;;;;5087678;27;49604;-77
2021/11/28 05:55:25;;;;;;;;;1.00;1.00;;;;;;;;5087443;27;49910;-77
2021/11/28 05:57:51;;;;;;;;;6.00;2.75;;;;;;;;5086221;28;49294;-76
2021/11/28 06:00:17;;;;;;;;;1.25;1.00;;;;;;;;5086814;28;49513;-74
2021/11/28 06:02:42;;;;;;;;;1.00;1.00;;;;;;;;5087617;27;49495;-77
2021/11/28 06:05:08;;;;;;;;;1.00;1.00;;;;;;;;5087035;28;50081;-78
2021/11/28 06:07:33;;;;;;;;;1.25;1.25;;;;;;;;5087328;27;49343;-79
2021/11/28 06:09:59;;;;;;;;;1.00;1.00;;;;;;;;5088180;27;49391;-78
2021/11/28 06:12:24;;;;;;;;;2.00;0.50;;;;;;;;5087863;27;49205;-64
2021/11/28 06:14:49;;;;;;;;;1.25;1.25;;;;;;;;5090611;27;49462;-63
2021/11/28 06:17:15;;;;;;;;;1.00;1.00;;;;;;;;5090253;27;49318;-63
2021/11/28 06:19:40;;;;;;;;;1.50;1.50;;;;;;;;5090930;27;49249;-62
2021/11/28 06:22:08;;;;;;;;;1.25;1.00;;;;;;;;5090939;28;49561;-63
2021/11/28 06:24:33;;;;;;;;;1.25;1.00;;;;;;;;5090086;27;50159;-63
2021/11/28 06:26:58;;;;;;;;;1.75;1.00;;;;;;;;5090815;27;49427;-64
2021/11/28 06:29:24;;;;;;;;;1.00;1.00;;;;;;;;5091687;27;49365;-64
2021/11/28 06:31:49;;;;;;;;;3.00;3.00;;;;;;;;5090126;27;49916;-64
2021/11/28 06:34:14;;;;;;;;;6.25;5.00;;;;;;;;5088542;28;51546;-64
2021/11/28 06:36:39;;;;;;;;;3.50;1.00;;;;;;;;5090182;27;49355;-64
2021/11/28 06:39:04;;;;;;;;;0.50;0.50;;;;;;;;5091262;28;49407;-64
2021/11/28 06:41:30;;;;;;;;;2.25;1.00;;;;;;;;5089104;27;49618;-64
2021/11/28 06:43:56;;;;;;;;;0.50;0.00;;;;;;;;5090742;27;49972;-64
2021/11/28 06:46:21;;;;;;;;;5.00;3.50;;;;;;;;5090061;27;49496;-65
2021/11/28 06:48:47;;;;;;;;;2.00;2.00;;;;;;;;5091053;27;49193;-63
2021/11/28 06:51:12;;;;;;;;;3.25;2.00;;;;;;;;5088685;27;50147;-63
2021/11/28 06:53:37;;;;;;;;;2.75;2.00;;;;;;;;5090495;27;49464;-63
2021/11/28 06:56:04;;;;;;;;;2.00;1.00;;;;;;;;5089560;28;49333;-64
2021/11/28 06:58:30;;;;;;;;;2.00;2.00;;;;;;;;5090464;27;49423;-64
2021/11/28 07:00:55;;;;;;;;;0.50;0.50;;;;;;;;5090660;27;49505;-63
2021/11/28 07:03:20;;;;;;;;;2.50;1.00;;;;;;;;5090672;27;49533;-63
2021/11/28 07:05:46;;;;;;;;;5.00;2.00;;;;;;;;5089816;27;49347;-63
2021/11/28 07:08:11;;;;;;;;;5.25;3.00;;;;;;;;5090815;27;49426;-63
2021/11/28 07:10:39;;;;;;;;;2.00;2.00;;;;;;;;5089405;27;49352;-63
2021/11/28 07:13:04;;;;;;;;;7.50;2.25;;;;;;;;5090426;27;49986;-63
2021/11/28 07:15:29;;;;;;;;;6.75;5.00;;;;;;;;5089179;27;49571;-65
2021/11/28 07:17:54;;;;;;;;;6.50;5.25;;;;;;;;5089859;27;49363;-63
2021/11/28 07:20:20;;;;;;;;;6.00;6.00;;;;;;;;5089745;27;49560;-63
2021/11/28 07:22:45;;;;;;;;;6.75;6.75;;;;;;;;5088946;27;50009;-63
2021/11/28 07:25:10;;;;;;;;;3.50;3.00;;;;;;;;5089577;27;49226;-63
2021/11/28 07:27:36;;;;;;;;;11.00;10.00;;;;;;;;5088957;27;49298;-63
2021/11/28 07:30:02;;;;;;;;;9.00;6.75;;;;;;;;5090040;28;49638;-63
2021/11/28 07:32:27;;;;;;;;;3.00;3.00;;;;;;;;5087668;27;49553;-65
2021/11/28 07:34:52;;;;;;;;;11.00;9.75;;;;;;;;5088729;27;49545;-63
2021/11/28 07:37:18;;;;;;;;;0.00;0.00;;;;;;;;5090489;27;49357;-63
2021/11/28 07:39:43;;;;;;;;;5.75;2.50;;;;;;;;5089924;28;49467;-63
2021/11/28 07:42:08;;;;;;;;;6.00;3.00;;;;;;;;5089125;27;49368;-63
2021/11/28 07:44:34;;;;;;;;;5.00;5.00;;;;;;;;5090752;27;49277;-63
2021/11/28 07:47:00;;;;;;;;;1.00;1.00;;;;;;;;5089857;27;49267;-63
2021/11/28 07:49:25;;;;;;;;;6.00;6.00;;;;;;;;5089292;27;49425;-63
2021/11/28 07:51:50;;;;;;;;;6.00;4.00;;;;;;;;5087300;28;49977;-63
2021/11/28 07:54:16;;;;;;;;;7.25;7.25;;;;;;;;5088782;27;49323;-64
2021/11/28 07:56:42;;;;;;;;;9.00;7.00;;;;;;;;5088643;27;49358;-64
2021/11/28 07:59:07;;;;;;;;;3.25;3.25;;;;;;;;5088805;27;49243;-64
2021/11/28 08:01:33;;;;;;;;;5.50;5.25;;;;;;;;5089814;27;50396;-63
2021/11/28 08:03:58;;;;;;;;;3.00;3.00;;;;;;;;5086758;28;49402;-63
2021/11/28 08:06:23;;;;;;;;;12.25;7.00;;;;;;;;5089401;28;49250;-63
2021/11/28 08:08:49;;;;;;;;;11.25;7.75;;;;;;;;5088727;28;49487;-64
2021/11/28 08:11:14;;;;;;;;;6.00;5.00;;;;;;;;5089326;27;50054;-64
2021/11/28 08:13:39;;;;;;;;;7.00;6.00;;;;;;;;5088402;27;49309;-63
2021/11/28 08:16:04;;;;;;;;;13.25;11.50;;;;;;;;5090159;27;49454;-63
2021/11/28 08:18:30;;;;;;;;;7.00;6.75;;;;;;;;5089946;28;49543;-63
2021/11/28 08:20:55;;;;;;;;;5.25;1.50;;;;;;;;5088329;28;49963;-64
2021/11/28 08:23:20;;;;;;;;;11.50;10.50;;;;;;;;5089387;28;49408;-63
2021/11/28 08:25:45;;;;;;;;;8.50;6.50;;;;;;;;5087955;27;49313;-63
2021/11/28 08:28:11;;;;;;;;;6.50;6.50;;;;;;;;5089585;27;49265;-63
2021/11/28 08:30:36;;;;;;;;;4.50;3.50;;;;;;;;5088796;27;49462;-64
2021/11/28 08:33:03;;;;;;;;;3.00;3.00;;;;;;;;5088343;28;49385;-64
2021/11/28 08:35:29;;;;;;;;;2.00;2.00;;;;;;;;5087951;27;49555;-63
2021/11/28 08:37:54;;;;;;;;;6.25;4.25;;;;;;;;5087105;28;49577;-63
2021/11/28 08:40:20;;;;;;;;;5.75;3.00;;;;;;;;5088957;27;49903;-62
2021/11/28 08:42:45;;;;;;;;;5.25;3.00;;;;;;;;5088434;27;49616;-63
2021/11/28 08:45:11;;;;;;;;;6.00;6.00;;;;;;;;5087329;28;49438;-64
2021/11/28 08:47:37;;;;;;;;;7.00;7.00;;;;;;;;5089474;27;49324;-64
2021/11/28 08:50:04;;;;;;;;;7.00;5.50;;;;;;;;5073553;27;49690;-63
2021/11/28 08:52:29;;;;;;;;;5.00;5.00;;;;;;;;5073373;28;49898;-64
2021/11/28 08:54:54;;;;;;;;;5.00;5.00;;;;;;;;5083101;28;49519;-64
2021/11/28 08:57:19;;;;;;;;;9.25;7.00;;;;;;;;5078591;28;49789;-66
2021/11/28 08:59:45;;;;;;;;;3.50;3.00;;;;;;;;5071253;27;49835;-68
2021/11/28 09:02:10;;;;;;;;;3.00;3.00;;;;;;;;5071316;27;49876;-67
2021/11/28 09:04:36;;;;;;;;;2.50;2.50;;;;;;;;5071271;27;49677;-65
2021/11/28 09:07:02;;;;;;;;;6.00;3.00;;;;;;;;5071542;27;49814;-67
2021/11/28 09:09:28;;;;;;;;;3.50;2.00;;;;;;;;5071374;27;50347;-66
2021/11/28 09:11:53;;;;;;;;;2.00;2.00;;;;;;;;5071624;27;50007;-74
2021/11/28 09:14:18;;;;;;;;;4.00;2.00;;;;;;;;5071374;28;49867;-65
2021/11/28 09:16:43;;;;;;;;;5.50;5.00;;;;;;;;5071601;27;49746;-83
2021/11/28 09:19:17;;;;;;;;;3.00;3.00;;;;;;;;5073481;28;50422;-67
2021/11/28 09:21:42;;;;;;;;;3.00;2.00;;;;;;;;5070663;27;49761;-67
2021/11/28 09:26:51;;;;;;;;;5.50;5.50;;;;;;;;5071221;28;49662;-68
2021/11/28 09:29:17;;;;;;;;;10.25;6.25;;;;;;;;5070976;28;50449;-67
2021/11/28 09:31:43;;;;;;;;;3.00;3.00;;;;;;;;5070591;27;49883;-68
2021/11/28 09:34:08;;;;;;;;;7.00;7.00;;;;;;;;5069883;28;49839;-68
2021/11/28 09:36:33;;;;;;;;;8.00;2.75;;;;;;;;5069357;28;50214;-66
2021/11/28 09:39:00;;;;;;;;;4.50;3.50;;;;;;;;5063509;27;49750;-66
2021/11/28 09:41:30;;;;;;;;;3.50;2.00;;;;;;;;5061550;27;49693;-65
2021/11/28 09:43:57;;;;;;;;;5.00;2.00;;;;;;;;5070655;27;49747;-66
2021/11/28 09:46:24;;;;;;;;;4.00;3.00;;;;;;;;5068729;27;49814;-66
2021/11/28 09:49:01;;;;;;;;;6.50;5.25;;;;;;;;5064151;28;50530;-66
2021/11/28 09:51:30;;;;;;;;;5.25;3.00;;;;;;;;5045674;28;49844;-67
2021/11/28 09:53:56;;;;;;;;;5.75;5.25;;;;;;;;5063342;28;50031;-65
2021/11/28 09:56:22;;;;;;;;;5.00;5.00;;;;;;;;5076526;28;49638;-69
2021/11/28 09:58:47;;;;;;;;;5.00;3.00;;;;;;;;5077248;27;50391;-68
2021/11/28 10:01:13;;;;;;;;;9.00;9.00;;;;;;;;5077344;27;49623;-64
2021/11/28 10:03:38;;;;;;;;;10.00;5.75;;;;;;;;5076071;28;49732;-75
2021/11/28 10:06:03;;;;;;;;;9.25;9.00;;;;;;;;5076201;27;49596;-69
2021/11/28 10:08:29;;;;;;;;;12.50;12.00;;;;;;;;5075289;27;50396;-69
2021/11/28 10:11:13;;;;;;;;;9.00;7.00;;;;;;;;5075201;27;49709;-69
2021/11/28 10:13:39;;;;;;;;;16.00;10.75;;;;;;;;5075207;27;49999;-69
2021/11/28 10:16:04;;;;;;;;;5.50;5.50;;;;;;;;5074250;28;50187;-69
2021/11/28 10:18:31;;;;;;;;;10.75;9.00;;;;;;;;5075286;27;49874;-70
2021/11/28 10:20:56;;;;;;;;;8.50;4.00;;;;;;;;5074092;28;49951;-70
2021/11/28 10:23:22;;;;;;;;;5.00;5.00;;;;;;;;5074954;28;49792;-67
2021/11/28 10:25:47;;;;;;;;;4.75;2.75;;;;;;;;5082432;28;49775;-69
2021/11/28 10:28:14;;;;;;;;;6.25;5.75;;;;;;;;5081692;28;49806;-68
2021/11/28 10:30:41;;;;;;;;;5.00;2.25;;;;;;;;5086199;27;49903;-67
2021/11/28 10:33:09;;;;;;;;;4.00;4.00;;;;;;;;5077224;27;49776;-68
2021/11/28 10:35:35;;;;;;;;;4.00;2.25;;;;;;;;5077111;28;49863;-63
2021/11/28 10:38:09;;;;;;;;;2.50;2.50;;;;;;;;5076579;27;49872;-65
2021/11/28 10:40:34;;;;;;;;;18.75;6.50;;;;;;;;5076980;27;49834;-65
2021/11/28 10:43:07;;;;;;;;;7.25;6.75;;;;;;;;5076951;27;49854;-65
2021/11/28 10:45:36;;;;;;;;;9.25;8.00;;;;;;;;5077119;27;49834;-65
2021/11/28 10:48:05;;;;;;;;;1.00;1.00;;;;;;;;5076504;28;50699;-64
2021/11/28 10:50:33;;;;;;;;;8.75;7.75;;;;;;;;5076813;27;50042;-65
2021/11/28 10:53:07;;;;;;;;;6.25;6.25;;;;;;;;5076678;27;49613;-65
2021/11/28 10:55:38;;;;;;;;;7.00;4.00;;;;;;;;5077068;28;49920;-69
2021/11/28 10:58:09;;;;;;;;;8.75;7.00;;;;;;;;5076122;27;50556;-67
2021/11/28 11:00:58;;;;;;;;;6.00;6.00;;;;;;;;5072647;28;49819;-68
2021/11/28 11:03:30;;;;;;;;;6.50;4.50;;;;;;;;5072896;27;49722;-68
2021/11/28 11:06:14;;;;;;;;;8.25;6.25;;;;;;;;5073609;28;49893;-67
2021/11/28 11:08:40;;;;;;;;;6.00;5.25;;;;;;;;5072765;28;49754;-66
2021/11/28 11:11:09;;;;;;;;;6.00;6.00;;;;;;;;5073310;28;49695;-65
2021/11/28 11:13:53;;;;;;;;;3.00;3.00;;;;;;;;5073243;28;49840;-66
2021/11/28 11:16:30;;;;;;;;;5.50;5.50;;;;;;;;5073448;28;49994;-66
2021/11/28 11:19:16;;;;;;;;;5.00;5.00;;;;;;;;5073050;28;50923;-66
2021/11/28 11:22:00;;;;;;;;;5.25;3.00;;;;;;;;5072607;28;49726;-66
2021/11/28 11:24:25;;;;;;;;;5.00;2.00;;;;;;;;5074440;28;49866;-66
2021/11/28 11:26:51;;;;;;;;;3.50;2.50;;;;;;;;5073157;28;49645;-66
2021/11/28 11:29:17;;;;;;;;;3.75;2.50;;;;;;;;5072775;28;50532;-66
2021/11/28 11:31:51;;;;;;;;;2.00;2.00;;;;;;;;5072724;28;49849;-66
2021/11/28 11:34:30;;;;;;;;;4.00;3.00;;;;;;;;5070965;28;49794;-66
2021/11/28 11:37:11;;;;;;;;;6.00;6.00;;;;;;;;5072706;28;49751;-66
2021/11/28 11:39:37;;;;;;;;;1.75;1.75;;;;;;;;5072526;28;49805;-65
2021/11/28 11:42:02;;;;;;;;;11.75;9.00;;;;;;;;5072498;28;49834;-65
2021/11/28 11:44:28;;;;;;;;;5.75;4.50;;;;;;;;5072398;28;49919;-65
2021/11/28 11:46:54;;;;;;;;;5.00;2.50;;;;;;;;5072402;28;49953;-67
2021/11/28 11:49:19;;;;;;;;;9.50;7.75;;;;;;;;5072404;28;50318;-66
2021/11/28 11:51:47;;;;;;;;;2.00;2.00;;;;;;;;5072683;28;49798;-66
2021/11/28 11:54:20;;;;;;;;;3.50;3.50;;;;;;;;5072567;28;49724;-66
2021/11/28 11:56:46;;;;;;;;;3.00;3.00;;;;;;;;5072750;28;49746;-65
2021/11/28 11:59:18;;;;;;;;;6.00;2.00;;;;;;;;5070905;28;50822;-66
2021/11/28 12:01:44;;;;;;;;;9.75;7.75;;;;;;;;5072318;28;49851;-67
2021/11/28 12:04:09;;;;;;;;;5.00;1.50;;;;;;;;5072341;28;49759;-66
2021/11/28 12:06:45;;;;;;;;;5.00;2.25;;;;;;;;5072281;28;49744;-66
2021/11/28 12:09:23;;;;;;;;;4.00;3.00;;;;;;;;5072235;28;50396;-65
2021/11/28 12:11:57;;;;;;;;;2.50;2.00;;;;;;;;5071819;28;49759;-66
2021/11/28 12:14:22;;;;;;;;;6.00;6.00;;;;;;;;5072221;28;49684;-64
2021/11/28 12:16:47;;;;;;;;;4.00;3.00;;;;;;;;5072471;28;50023;-66
2021/11/28 12:19:48;;;;;;;;;6.50;5.25;;;;;;;;5071897;28;49689;-71
2021/11/28 12:22:32;;;;;;;;;10.75;7.00;;;;;;;;5008216;28;49972;-69
2021/11/28 12:25:17;;;;;;;;;7.50;5.25;;;;;;;;5047849;28;49945;-73
2021/11/28 12:27:43;;;;;;;;;6.25;6.00;;;;;;;;5069822;28;49950;-73
2021/11/28 12:30:34;;;;;;;;;5.25;5.00;;;;;;;;5069710;28;52457;-71
2021/11/28 12:33:00;;;;;;;;;5.50;3.25;;;;;;;;5067696;28;50150;-72
2021/11/28 12:35:38;;;;;;;;;4.00;3.00;;;;;;;;5069967;28;49597;-76
2021/11/28 12:38:03;;;;;;;;;6.00;6.00;;;;;;;;5071880;28;49903;-67
2021/11/28 12:40:31;;;;;;;;;9.00;5.00;;;;;;;;5071531;28;50045;-73
2021/11/28 12:42:57;;;;;;;;;7.00;6.00;;;;;;;;5072973;28;49760;-76
2021/11/28 12:45:36;;;;;;;;;8.50;8.50;;;;;;;;5075325;28;49867;-74
2021/11/28 12:48:06;;;;;;;;;8.75;8.00;;;;;;;;5072778;28;49706;-70
2021/11/28 12:50:47;;;;;;;;;5.25;2.00;;;;;;;;5071578;28;49629;-72
2021/11/28 12:53:23;;;;;;;;;3.50;3.50;;;;;;;;5071662;28;49890;-72
2021/11/28 12:56:09;;;;;;;;;2.00;2.00;;;;;;;;5071633;27;49879;-67
2021/11/28 12:58:34;;;;;;;;;6.00;6.00;;;;;;;;5071374;28;49648;-67
2021/11/28 13:00:59;;;;;;;;;6.50;5.75;;;;;;;;5071410;28;49750;-69
2021/11/28 13:03:25;;;;;;;;;0.50;0.50;;;;;;;;5071659;28;49932;-77
2021/11/28 13:05:57;;;;;;;;;4.75;2.75;;;;;;;;5071317;28;49750;-73
2021/11/28 13:08:22;;;;;;;;;5.25;5.25;;;;;;;;5071516;28;49757;-76
2021/11/28 13:10:47;;;;;;;;;6.50;5.25;;;;;;;;5071160;28;50524;-69
2021/11/28 13:13:16;;;;;;;;;3.00;2.00;;;;;;;;5069488;28;49731;-64
2021/11/28 13:15:48;;;;;;;;;6.00;4.00;;;;;;;;5071377;28;49632;-66
2021/11/28 13:18:14;;;;;;;;;6.50;5.00;;;;;;;;5071431;28;49803;-67
2021/11/28 13:20:41;;;;;;;;;1.00;1.00;;;;;;;;5071044;28;50426;-68
2021/11/28 13:23:09;;;;;;;;;1.75;1.75;;;;;;;;5069861;28;49821;-70
2021/11/28 13:25:38;;;;;;;;;2.00;2.00;;;;;;;;5071321;28;49797;-69
2021/11/28 13:28:05;;;;;;;;;4.50;3.00;;;;;;;;5069779;28;49753;-72
2021/11/28 13:30:37;;;;;;;;;2.25;1.25;;;;;;;;5070835;28;49613;-69
2021/11/28 13:33:13;;;;;;;;;2.25;1.50;;;;;;;;5070849;28;49753;-68
2021/11/28 13:35:39;;;;;;;;;2.50;1.75;;;;;;;;5070393;27;49874;-68
2021/11/28 13:38:11;;;;;;;;;2.75;2.00;;;;;;;;5071203;28;49947;-69
2021/11/28 13:40:37;;;;;;;;;5.50;3.00;;;;;;;;5070779;28;50525;-69
2021/11/28 13:43:02;;;;;;;;;5.00;3.00;;;;;;;;5070886;28;49715;-67
2021/11/28 13:45:27;;;;;;;;;5.00;2.75;;;;;;;;5070996;28;49606;-67
2021/11/28 13:47:52;;;;;;;;;1.25;1.25;;;;;;;;5071064;28;49831;-69
2021/11/28 13:50:17;;;;;;;;;3.00;2.50;;;;;;;;5070315;28;49992;-68
2021/11/28 13:52:43;;;;;;;;;2.75;2.00;;;;;;;;5070721;28;49882;-67
2021/11/28 13:55:08;;;;;;;;;7.50;5.50;;;;;;;;5070655;28;50221;-67
2021/11/28 13:57:33;;;;;;;;;6.00;4.50;;;;;;;;5071031;28;49628;-68
2021/11/28 14:00:05;;;;;;;;;3.00;3.00;;;;;;;;5070632;28;50700;-67
2021/11/28 14:02:31;;;;;;;;;4.00;2.75;;;;;;;;5070671;28;49935;-67
2021/11/28 14:05:01;;;;;;;;;2.25;2.25;;;;;;;;5070514;28;50063;-67
2021/11/28 14:07:28;;;;;;;;;3.25;3.25;;;;;;;;5070803;28;49585;-68
2021/11/28 14:09:54;;;;;;;;;8.25;8.25;;;;;;;;5068972;28;51023;-68
2021/11/28 14:12:21;;;;;;;;;15.00;11.50;;;;;;;;5070472;28;49820;-67
2021/11/28 14:14:52;;;;;;;;;7.00;7.00;;;;;;;;5070782;28;49682;-68
2021/11/28 14:17:17;;;;;;;;;5.75;3.00;;;;;;;;5070755;28;49729;-67
2021/11/28 14:19:43;;;;;;;;;9.00;7.75;;;;;;;;5070322;28;50293;-65
2021/11/28 14:22:26;;;;;;;;;5.75;5.75;;;;;;;;5070233;28;49632;-66
2021/11/28 14:24:51;;;;;;;;;21.25;17.25;;;;;;;;5070499;28;49705;-65
2021/11/28 14:27:18;;;;;;;;;4.00;3.50;;;;;;;;5070554;28;49909;-65
2021/11/28 14:29:44;;;;;;;;;12.50;12.50;;;;;;;;5070148;28;50405;-65
2021/11/28 14:32:09;;;;;;;;;20.75;14.00;;;;;;;;5070276;28;49698;-64
2021/11/28 14:34:34;;;;;;;;;9.00;7.00;;;;;;;;5072153;28;49624;-65
2021/11/28 14:37:12;;;;;;;;;14.50;10.00;;;;;;;;5073969;28;49983;-65
2021/11/28 14:39:38;;;;;;;;;13.50;10.00;;;;;;;;5073496;28;49851;-65
2021/11/28 14:42:17;;;;;;;;;27.25;24.75;;;;;;;;5073450;28;49631;-65
2021/11/28 14:44:50;;;;;;;;;6.50;6.25;;;;;;;;5073727;28;49842;-65
2021/11/28 14:47:26;;;;;;;;;8.50;5.75;;;;;;;;5074036;28;49779;-64
2021/11/28 14:49:52;;;;;;;;;11.00;10.50;;;;;;;;5073231;28;49976;-65
2021/11/28 14:52:47;;;;;;;;;15.50;13.75;;;;;;;;5073531;28;49801;-64